sensor_id;sensor_type;location;lat;lon;timestamp;P1;durP1;ratioP1;P2;durP2;ratioP2
12433;SDS011;6281;49.038;8.372;2022-09-28T00:01:49;0.80;;;0.67;;
12433;SDS011;6281;49.038;8.372;2022-09-28T00:04:18;2.27;;;0.97;;
12433;SDS011;6281;49.038;8.372;2022-09-28T00:06:45;3.07;;;1.00;;
12433;SDS011;6281;49.038;8.372;2022-09-28T00:09:12;0.80;;;0.57;;
12433;SDS011;6281;49.038;8.372;2022-09-28T00:11:43;1.57;;;0.60;;
12433;SDS011;6281;49.038;8.372;2022-09-28T00:14:16;1.83;;;1.10;;
12433;SDS011;6281;49.038;8.372;2022-09-28T00:16:43;1.80;;;0.67;;
12433;SDS011;6281;49.038;8.372;2022-09-28T00:19:13;1.70;;;0.90;;
12433;SDS011;6281;49.038;8.372;2022-09-28T00:21:45;2.50;;;0.80;;
12433;SDS011;6281;49.038;8.372;2022-09-28T00:24:12;2.60;;;0.70;;
12433;SDS011;6281;49.038;8.372;2022-09-28T00:26:45;2.70;;;1.03;;
12433;SDS011;6281;49.038;8.372;2022-09-28T00:29:16;1.53;;;0.90;;
12433;SDS011;6281;49.038;8.372;2022-09-28T00:31:45;1.57;;;0.80;;
12433;SDS011;6281;49.038;8.372;2022-09-28T00:34:13;3.43;;;1.00;;
12433;SDS011;6281;49.038;8.372;2022-09-28T00:36:46;2.93;;;1.00;;
12433;SDS011;6281;49.038;8.372;2022-09-28T00:39:14;2.40;;;0.80;;
12433;SDS011;6281;49.038;8.372;2022-09-28T00:41:42;2.97;;;0.80;;
12433;SDS011;6281;49.038;8.372;2022-09-28T00:44:33;3.23;;;1.20;;
12433;SDS011;6281;49.038;8.372;2022-09-28T00:50:16;4.20;;;1.00;;
12433;SDS011;6281;49.038;8.372;2022-09-28T00:52:56;1.57;;;1.00;;
12433;SDS011;6281;49.038;8.372;2022-09-28T00:55:28;3.27;;;0.73;;
12433;SDS011;6281;49.038;8.372;2022-09-28T00:58:04;4.70;;;1.20;;
12433;SDS011;6281;49.038;8.372;2022-09-28T01:00:33;3.23;;;1.30;;
12433;SDS011;6281;49.038;8.372;2022-09-28T01:03:11;2.93;;;1.00;;
12433;SDS011;6281;49.038;8.372;2022-09-28T01:05:42;1.67;;;1.10;;
12433;SDS011;6281;49.038;8.372;2022-09-28T01:08:19;4.07;;;1.40;;
12433;SDS011;6281;49.038;8.372;2022-09-28T01:14:20;4.10;;;1.13;;
12433;SDS011;6281;49.038;8.372;2022-09-28T01:16:52;3.43;;;1.40;;
12433;SDS011;6281;49.038;8.372;2022-09-28T01:22:35;1.70;;;1.07;;
12433;SDS011;6281;49.038;8.372;2022-09-28T01:25:38;2.10;;;0.97;;
12433;SDS011;6281;49.038;8.372;2022-09-28T01:28:14;3.40;;;1.20;;
12433;SDS011;6281;49.038;8.372;2022-09-28T01:30:45;3.40;;;1.40;;
12433;SDS011;6281;49.038;8.372;2022-09-28T01:33:17;3.90;;;1.30;;
12433;SDS011;6281;49.038;8.372;2022-09-28T01:35:48;2.87;;;1.20;;
12433;SDS011;6281;49.038;8.372;2022-09-28T01:38:21;2.37;;;1.30;;
12433;SDS011;6281;49.038;8.372;2022-09-28T01:40:54;5.03;;;1.93;;
12433;SDS011;6281;49.038;8.372;2022-09-28T01:43:25;4.47;;;1.80;;
12433;SDS011;6281;49.038;8.372;2022-09-28T01:45:53;1.50;;;1.10;;
12433;SDS011;6281;49.038;8.372;2022-09-28T01:48:25;4.00;;;1.93;;
12433;SDS011;6281;49.038;8.372;2022-09-28T01:50:57;4.43;;;1.70;;
12433;SDS011;6281;49.038;8.372;2022-09-28T01:53:29;3.37;;;1.90;;
12433;SDS011;6281;49.038;8.372;2022-09-28T01:55:59;4.33;;;2.00;;
12433;SDS011;6281;49.038;8.372;2022-09-28T01:58:34;5.33;;;1.83;;
12433;SDS011;6281;49.038;8.372;2022-09-28T02:01:05;7.80;;;2.23;;
12433;SDS011;6281;49.038;8.372;2022-09-28T02:03:40;5.07;;;1.77;;
12433;SDS011;6281;49.038;8.372;2022-09-28T02:06:14;5.70;;;2.00;;
12433;SDS011;6281;49.038;8.372;2022-09-28T02:08:48;3.13;;;1.10;;
12433;SDS011;6281;49.038;8.372;2022-09-28T02:11:19;3.87;;;1.20;;
12433;SDS011;6281;49.038;8.372;2022-09-28T02:13:53;8.20;;;1.23;;
12433;SDS011;6281;49.038;8.372;2022-09-28T02:16:33;4.43;;;1.00;;
12433;SDS011;6281;49.038;8.372;2022-09-28T02:19:03;3.83;;;1.40;;
12433;SDS011;6281;49.038;8.372;2022-09-28T02:21:33;2.13;;;1.10;;
12433;SDS011;6281;49.038;8.372;2022-09-28T02:24:08;2.60;;;0.90;;
12433;SDS011;6281;49.038;8.372;2022-09-28T02:26:43;1.80;;;1.17;;
12433;SDS011;6281;49.038;8.372;2022-09-28T02:29:13;4.23;;;1.00;;
12433;SDS011;6281;49.038;8.372;2022-09-28T02:31:40;4.37;;;1.23;;
12433;SDS011;6281;49.038;8.372;2022-09-28T02:34:08;4.07;;;1.20;;
12433;SDS011;6281;49.038;8.372;2022-09-28T02:36:34;2.23;;;1.10;;
12433;SDS011;6281;49.038;8.372;2022-09-28T02:39:02;2.13;;;0.90;;
12433;SDS011;6281;49.038;8.372;2022-09-28T02:41:36;1.23;;;0.90;;
12433;SDS011;6281;49.038;8.372;2022-09-28T02:44:16;2.30;;;0.93;;
12433;SDS011;6281;49.038;8.372;2022-09-28T02:46:55;4.40;;;1.00;;
12433;SDS011;6281;49.038;8.372;2022-09-28T02:49:26;2.23;;;0.77;;
12433;SDS011;6281;49.038;8.372;2022-09-28T02:52:04;2.33;;;0.80;;
12433;SDS011;6281;49.038;8.372;2022-09-28T02:57:46;1.70;;;0.87;;
12433;SDS011;6281;49.038;8.372;2022-09-28T03:00:28;0.90;;;0.90;;
12433;SDS011;6281;49.038;8.372;2022-09-28T03:03:00;2.07;;;0.90;;
12433;SDS011;6281;49.038;8.372;2022-09-28T03:05:36;5.30;;;1.87;;
12433;SDS011;6281;49.038;8.372;2022-09-28T03:08:12;1.33;;;0.90;;
12433;SDS011;6281;49.038;8.372;2022-09-28T03:10:47;3.57;;;0.97;;
12433;SDS011;6281;49.038;8.372;2022-09-28T03:13:17;2.60;;;0.80;;
12433;SDS011;6281;49.038;8.372;2022-09-28T03:15:46;3.87;;;0.97;;
12433;SDS011;6281;49.038;8.372;2022-09-28T03:18:13;3.00;;;0.87;;
12433;SDS011;6281;49.038;8.372;2022-09-28T03:20:40;4.27;;;1.10;;
12433;SDS011;6281;49.038;8.372;2022-09-28T03:23:07;2.03;;;0.87;;
12433;SDS011;6281;49.038;8.372;2022-09-28T03:25:34;0.87;;;0.67;;
12433;SDS011;6281;49.038;8.372;2022-09-28T03:28:01;3.67;;;1.10;;
12433;SDS011;6281;49.038;8.372;2022-09-28T03:30:28;3.23;;;1.20;;
12433;SDS011;6281;49.038;8.372;2022-09-28T03:32:59;1.23;;;0.80;;
12433;SDS011;6281;49.038;8.372;2022-09-28T03:35:27;1.33;;;0.67;;
12433;SDS011;6281;49.038;8.372;2022-09-28T03:37:54;2.87;;;1.00;;
12433;SDS011;6281;49.038;8.372;2022-09-28T03:40:21;2.50;;;1.10;;
12433;SDS011;6281;49.038;8.372;2022-09-28T03:42:48;3.57;;;1.10;;
12433;SDS011;6281;49.038;8.372;2022-09-28T03:45:15;1.77;;;0.80;;
12433;SDS011;6281;49.038;8.372;2022-09-28T03:47:45;3.83;;;1.27;;
12433;SDS011;6281;49.038;8.372;2022-09-28T03:50:14;2.93;;;0.90;;
12433;SDS011;6281;49.038;8.372;2022-09-28T03:52:41;1.53;;;0.80;;
12433;SDS011;6281;49.038;8.372;2022-09-28T03:55:08;6.47;;;1.03;;
12433;SDS011;6281;49.038;8.372;2022-09-28T03:57:36;3.27;;;1.40;;
12433;SDS011;6281;49.038;8.372;2022-09-28T04:00:03;2.53;;;1.50;;
12433;SDS011;6281;49.038;8.372;2022-09-28T04:02:32;2.97;;;1.57;;
12433;SDS011;6281;49.038;8.372;2022-09-28T04:04:59;4.43;;;1.20;;
12433;SDS011;6281;49.038;8.372;2022-09-28T04:07:27;2.57;;;1.20;;
12433;SDS011;6281;49.038;8.372;2022-09-28T04:09:54;2.53;;;1.23;;
12433;SDS011;6281;49.038;8.372;2022-09-28T04:12:21;2.43;;;1.27;;
12433;SDS011;6281;49.038;8.372;2022-09-28T04:14:48;3.80;;;1.30;;
12433;SDS011;6281;49.038;8.372;2022-09-28T04:17:15;3.93;;;1.10;;
12433;SDS011;6281;49.038;8.372;2022-09-28T04:19:42;3.57;;;1.00;;
12433;SDS011;6281;49.038;8.372;2022-09-28T04:22:08;1.43;;;0.90;;
12433;SDS011;6281;49.038;8.372;2022-09-28T04:24:37;3.77;;;1.10;;
12433;SDS011;6281;49.038;8.372;2022-09-28T04:27:06;2.80;;;1.30;;
12433;SDS011;6281;49.038;8.372;2022-09-28T04:29:50;2.67;;;1.70;;
12433;SDS011;6281;49.038;8.372;2022-09-28T04:32:17;3.67;;;1.70;;
12433;SDS011;6281;49.038;8.372;2022-09-28T04:34:44;4.57;;;1.43;;
12433;SDS011;6281;49.038;8.372;2022-09-28T04:37:10;3.70;;;1.27;;
12433;SDS011;6281;49.038;8.372;2022-09-28T04:39:40;3.20;;;1.40;;
12433;SDS011;6281;49.038;8.372;2022-09-28T04:42:08;2.93;;;1.20;;
12433;SDS011;6281;49.038;8.372;2022-09-28T04:44:35;2.83;;;1.20;;
12433;SDS011;6281;49.038;8.372;2022-09-28T04:47:02;2.33;;;1.17;;
12433;SDS011;6281;49.038;8.372;2022-09-28T04:49:29;8.33;;;1.70;;
12433;SDS011;6281;49.038;8.372;2022-09-28T04:51:59;2.97;;;1.43;;
12433;SDS011;6281;49.038;8.372;2022-09-28T04:54:26;4.70;;;1.80;;
12433;SDS011;6281;49.038;8.372;2022-09-28T04:56:55;2.57;;;1.47;;
12433;SDS011;6281;49.038;8.372;2022-09-28T04:59:22;3.07;;;1.27;;
12433;SDS011;6281;49.038;8.372;2022-09-28T05:01:49;3.77;;;1.60;;
12433;SDS011;6281;49.038;8.372;2022-09-28T05:04:18;5.00;;;1.90;;
12433;SDS011;6281;49.038;8.372;2022-09-28T05:06:45;5.67;;;1.70;;
12433;SDS011;6281;49.038;8.372;2022-09-28T05:09:11;4.93;;;2.03;;
12433;SDS011;6281;49.038;8.372;2022-09-28T05:11:38;4.87;;;2.40;;
12433;SDS011;6281;49.038;8.372;2022-09-28T05:14:07;4.60;;;2.17;;
12433;SDS011;6281;49.038;8.372;2022-09-28T05:16:35;5.07;;;2.13;;
12433;SDS011;6281;49.038;8.372;2022-09-28T05:19:02;2.57;;;1.90;;
12433;SDS011;6281;49.038;8.372;2022-09-28T05:21:30;5.10;;;2.63;;
12433;SDS011;6281;49.038;8.372;2022-09-28T05:23:57;3.13;;;1.83;;
12433;SDS011;6281;49.038;8.372;2022-09-28T05:26:24;4.83;;;2.00;;
12433;SDS011;6281;49.038;8.372;2022-09-28T05:28:51;3.63;;;2.13;;
12433;SDS011;6281;49.038;8.372;2022-09-28T05:31:19;6.80;;;2.00;;
12433;SDS011;6281;49.038;8.372;2022-09-28T05:33:46;6.07;;;2.40;;
12433;SDS011;6281;49.038;8.372;2022-09-28T05:36:13;7.30;;;2.30;;
12433;SDS011;6281;49.038;8.372;2022-09-28T05:38:43;5.80;;;3.13;;
12433;SDS011;6281;49.038;8.372;2022-09-28T05:41:10;5.13;;;2.50;;
12433;SDS011;6281;49.038;8.372;2022-09-28T05:43:37;5.60;;;2.70;;
12433;SDS011;6281;49.038;8.372;2022-09-28T05:46:04;8.33;;;3.37;;
12433;SDS011;6281;49.038;8.372;2022-09-28T05:48:33;7.37;;;2.87;;
12433;SDS011;6281;49.038;8.372;2022-09-28T05:51:00;7.77;;;2.67;;
12433;SDS011;6281;49.038;8.372;2022-09-28T05:53:27;6.00;;;2.40;;
12433;SDS011;6281;49.038;8.372;2022-09-28T05:55:56;4.97;;;2.87;;
12433;SDS011;6281;49.038;8.372;2022-09-28T05:58:23;3.87;;;2.80;;
12433;SDS011;6281;49.038;8.372;2022-09-28T06:00:52;6.97;;;3.07;;
12433;SDS011;6281;49.038;8.372;2022-09-28T06:03:20;6.70;;;2.80;;
12433;SDS011;6281;49.038;8.372;2022-09-28T06:05:48;3.63;;;2.57;;
12433;SDS011;6281;49.038;8.372;2022-09-28T06:08:15;6.60;;;3.17;;
12433;SDS011;6281;49.038;8.372;2022-09-28T06:10:42;3.53;;;2.50;;
12433;SDS011;6281;49.038;8.372;2022-09-28T06:13:10;7.10;;;3.10;;
12433;SDS011;6281;49.038;8.372;2022-09-28T06:15:37;9.23;;;2.57;;
12433;SDS011;6281;49.038;8.372;2022-09-28T06:18:08;6.17;;;2.53;;
12433;SDS011;6281;49.038;8.372;2022-09-28T06:20:38;4.67;;;2.90;;
12433;SDS011;6281;49.038;8.372;2022-09-28T06:23:07;4.60;;;2.70;;
12433;SDS011;6281;49.038;8.372;2022-09-28T06:25:35;5.70;;;2.33;;
12433;SDS011;6281;49.038;8.372;2022-09-28T06:28:03;6.13;;;2.67;;
12433;SDS011;6281;49.038;8.372;2022-09-28T06:30:31;6.73;;;3.10;;
12433;SDS011;6281;49.038;8.372;2022-09-28T06:33:02;5.87;;;2.90;;
12433;SDS011;6281;49.038;8.372;2022-09-28T06:35:29;6.53;;;2.27;;
12433;SDS011;6281;49.038;8.372;2022-09-28T06:37:57;6.67;;;2.20;;
12433;SDS011;6281;49.038;8.372;2022-09-28T06:40:26;3.67;;;2.20;;
12433;SDS011;6281;49.038;8.372;2022-09-28T06:42:54;8.03;;;2.20;;
12433;SDS011;6281;49.038;8.372;2022-09-28T06:45:22;4.20;;;2.23;;
12433;SDS011;6281;49.038;8.372;2022-09-28T06:47:51;4.43;;;2.43;;
12433;SDS011;6281;49.038;8.372;2022-09-28T06:50:20;5.03;;;2.33;;
12433;SDS011;6281;49.038;8.372;2022-09-28T06:52:49;4.20;;;2.30;;
12433;SDS011;6281;49.038;8.372;2022-09-28T06:55:17;3.77;;;2.37;;
12433;SDS011;6281;49.038;8.372;2022-09-28T06:57:45;8.47;;;2.67;;
12433;SDS011;6281;49.038;8.372;2022-09-28T07:00:13;7.27;;;3.37;;
12433;SDS011;6281;49.038;8.372;2022-09-28T07:02:40;5.37;;;2.60;;
12433;SDS011;6281;49.038;8.372;2022-09-28T07:05:08;5.53;;;2.60;;
12433;SDS011;6281;49.038;8.372;2022-09-28T07:07:38;5.87;;;2.77;;
12433;SDS011;6281;49.038;8.372;2022-09-28T07:10:08;5.90;;;2.80;;
12433;SDS011;6281;49.038;8.372;2022-09-28T07:12:35;5.00;;;2.17;;
12433;SDS011;6281;49.038;8.372;2022-09-28T07:15:04;6.57;;;2.70;;
12433;SDS011;6281;49.038;8.372;2022-09-28T07:17:33;6.87;;;3.03;;
12433;SDS011;6281;49.038;8.372;2022-09-28T07:20:00;5.20;;;2.60;;
12433;SDS011;6281;49.038;8.372;2022-09-28T07:22:28;5.73;;;2.63;;
12433;SDS011;6281;49.038;8.372;2022-09-28T07:24:55;6.53;;;3.07;;
12433;SDS011;6281;49.038;8.372;2022-09-28T07:27:22;6.10;;;2.87;;
12433;SDS011;6281;49.038;8.372;2022-09-28T07:29:50;5.93;;;2.70;;
12433;SDS011;6281;49.038;8.372;2022-09-28T07:32:20;9.03;;;2.40;;
12433;SDS011;6281;49.038;8.372;2022-09-28T07:34:47;2.90;;;2.00;;
12433;SDS011;6281;49.038;8.372;2022-09-28T07:37:14;4.77;;;2.90;;
12433;SDS011;6281;49.038;8.372;2022-09-28T07:39:42;5.17;;;2.43;;
12433;SDS011;6281;49.038;8.372;2022-09-28T07:42:28;2.50;;;1.90;;
12433;SDS011;6281;49.038;8.372;2022-09-28T07:44:55;5.80;;;2.30;;
12433;SDS011;6281;49.038;8.372;2022-09-28T07:47:25;4.50;;;2.00;;
12433;SDS011;6281;49.038;8.372;2022-09-28T07:49:52;7.53;;;2.67;;
12433;SDS011;6281;49.038;8.372;2022-09-28T07:52:21;8.33;;;3.27;;
12433;SDS011;6281;49.038;8.372;2022-09-28T07:54:50;3.33;;;2.13;;
12433;SDS011;6281;49.038;8.372;2022-09-28T07:57:21;5.87;;;1.97;;
12433;SDS011;6281;49.038;8.372;2022-09-28T07:59:49;5.60;;;2.17;;
12433;SDS011;6281;49.038;8.372;2022-09-28T08:02:18;4.10;;;2.10;;
12433;SDS011;6281;49.038;8.372;2022-09-28T08:04:47;3.90;;;1.70;;
12433;SDS011;6281;49.038;8.372;2022-09-28T08:07:14;6.23;;;2.17;;
12433;SDS011;6281;49.038;8.372;2022-09-28T08:09:44;3.10;;;1.83;;
12433;SDS011;6281;49.038;8.372;2022-09-28T08:12:15;6.37;;;2.20;;
12433;SDS011;6281;49.038;8.372;2022-09-28T08:14:45;4.53;;;2.37;;
12433;SDS011;6281;49.038;8.372;2022-09-28T08:17:13;5.23;;;2.57;;
12433;SDS011;6281;49.038;8.372;2022-09-28T08:19:46;4.50;;;1.97;;
12433;SDS011;6281;49.038;8.372;2022-09-28T08:22:46;4.30;;;2.50;;
12433;SDS011;6281;49.038;8.372;2022-09-28T08:25:13;7.47;;;3.63;;
12433;SDS011;6281;49.038;8.372;2022-09-28T08:27:43;5.37;;;3.67;;
12433;SDS011;6281;49.038;8.372;2022-09-28T08:30:13;3.87;;;2.77;;
12433;SDS011;6281;49.038;8.372;2022-09-28T08:32:44;4.83;;;2.67;;
12433;SDS011;6281;49.038;8.372;2022-09-28T08:35:16;5.57;;;2.73;;
12433;SDS011;6281;49.038;8.372;2022-09-28T08:37:48;8.10;;;3.33;;
12433;SDS011;6281;49.038;8.372;2022-09-28T08:40:19;7.47;;;2.90;;
12433;SDS011;6281;49.038;8.372;2022-09-28T08:42:48;7.47;;;3.10;;
12433;SDS011;6281;49.038;8.372;2022-09-28T08:45:20;6.60;;;3.60;;
12433;SDS011;6281;49.038;8.372;2022-09-28T08:47:51;4.97;;;2.67;;
12433;SDS011;6281;49.038;8.372;2022-09-28T08:50:47;5.33;;;3.80;;
12433;SDS011;6281;49.038;8.372;2022-09-28T08:53:22;6.50;;;4.43;;
12433;SDS011;6281;49.038;8.372;2022-09-28T08:56:01;7.53;;;3.80;;
12433;SDS011;6281;49.038;8.372;2022-09-28T08:58:31;8.40;;;3.30;;
12433;SDS011;6281;49.038;8.372;2022-09-28T09:01:03;5.03;;;3.03;;
12433;SDS011;6281;49.038;8.372;2022-09-28T09:03:33;3.93;;;2.60;;
12433;SDS011;6281;49.038;8.372;2022-09-28T09:06:06;3.63;;;2.20;;
12433;SDS011;6281;49.038;8.372;2022-09-28T09:08:44;6.30;;;2.70;;
12433;SDS011;6281;49.038;8.372;2022-09-28T09:11:22;4.90;;;2.67;;
12433;SDS011;6281;49.038;8.372;2022-09-28T09:17:04;3.63;;;2.40;;
12433;SDS011;6281;49.038;8.372;2022-09-28T09:19:39;4.57;;;2.40;;
12433;SDS011;6281;49.038;8.372;2022-09-28T09:22:16;4.57;;;2.17;;
12433;SDS011;6281;49.038;8.372;2022-09-28T09:24:53;3.90;;;2.00;;
12433;SDS011;6281;49.038;8.372;2022-09-28T09:27:31;5.53;;;2.43;;
12433;SDS011;6281;49.038;8.372;2022-09-28T09:30:10;3.00;;;2.00;;
12433;SDS011;6281;49.038;8.372;2022-09-28T09:32:47;4.07;;;2.30;;
12433;SDS011;6281;49.038;8.372;2022-09-28T09:35:50;3.20;;;1.40;;
12433;SDS011;6281;49.038;8.372;2022-09-28T09:38:43;7.77;;;2.10;;
12433;SDS011;6281;49.038;8.372;2022-09-28T09:41:19;3.40;;;1.70;;
12433;SDS011;6281;49.038;8.372;2022-09-28T09:46:52;5.70;;;1.90;;
12433;SDS011;6281;49.038;8.372;2022-09-28T09:49:24;2.63;;;1.40;;
12433;SDS011;6281;49.038;8.372;2022-09-28T09:52:00;8.00;;;1.67;;
12433;SDS011;6281;49.038;8.372;2022-09-28T09:54:34;1.67;;;1.40;;
12433;SDS011;6281;49.038;8.372;2022-09-28T09:57:06;3.23;;;1.70;;
12433;SDS011;6281;49.038;8.372;2022-09-28T09:59:41;2.83;;;1.70;;
12433;SDS011;6281;49.038;8.372;2022-09-28T10:04:52;3.53;;;1.57;;
12433;SDS011;6281;49.038;8.372;2022-09-28T10:06:13;3.20;;;1.80;;
12433;SDS011;6281;49.038;8.372;2022-09-28T10:09:03;2.77;;;1.60;;
12433;SDS011;6281;49.038;8.372;2022-09-28T10:11:56;3.60;;;1.50;;
12433;SDS011;6281;49.038;8.372;2022-09-28T10:14:24;3.40;;;1.90;;
12433;SDS011;6281;49.038;8.372;2022-09-28T10:16:54;3.37;;;1.43;;
12433;SDS011;6281;49.038;8.372;2022-09-28T10:19:24;4.07;;;1.77;;
12433;SDS011;6281;49.038;8.372;2022-09-28T10:21:56;6.97;;;1.90;;
12433;SDS011;6281;49.038;8.372;2022-09-28T10:24:27;4.53;;;1.60;;
12433;SDS011;6281;49.038;8.372;2022-09-28T10:26:59;5.17;;;2.07;;
12433;SDS011;6281;49.038;8.372;2022-09-28T10:29:35;5.03;;;2.03;;
12433;SDS011;6281;49.038;8.372;2022-09-28T10:32:16;5.63;;;2.73;;
12433;SDS011;6281;49.038;8.372;2022-09-28T10:34:44;5.30;;;2.43;;
12433;SDS011;6281;49.038;8.372;2022-09-28T10:37:11;3.57;;;1.70;;
12433;SDS011;6281;49.038;8.372;2022-09-28T10:39:40;4.53;;;2.10;;
12433;SDS011;6281;49.038;8.372;2022-09-28T10:42:17;5.57;;;2.00;;
12433;SDS011;6281;49.038;8.372;2022-09-28T10:44:50;4.67;;;2.17;;
12433;SDS011;6281;49.038;8.372;2022-09-28T10:47:21;4.60;;;2.40;;
12433;SDS011;6281;49.038;8.372;2022-09-28T10:49:50;6.33;;;2.17;;
12433;SDS011;6281;49.038;8.372;2022-09-28T10:52:30;3.53;;;2.20;;
12433;SDS011;6281;49.038;8.372;2022-09-28T10:54:59;6.27;;;2.20;;
12433;SDS011;6281;49.038;8.372;2022-09-28T10:57:29;4.97;;;2.20;;
12433;SDS011;6281;49.038;8.372;2022-09-28T11:00:00;5.33;;;2.20;;
12433;SDS011;6281;49.038;8.372;2022-09-28T11:02:28;4.53;;;2.27;;
12433;SDS011;6281;49.038;8.372;2022-09-28T11:04:57;5.87;;;2.63;;
12433;SDS011;6281;49.038;8.372;2022-09-28T11:07:27;6.47;;;2.60;;
12433;SDS011;6281;49.038;8.372;2022-09-28T11:09:56;4.20;;;2.00;;
12433;SDS011;6281;49.038;8.372;2022-09-28T11:12:24;10.07;;;3.57;;
12433;SDS011;6281;49.038;8.372;2022-09-28T11:14:57;5.73;;;2.30;;
12433;SDS011;6281;49.038;8.372;2022-09-28T11:17:27;7.03;;;2.47;;
12433;SDS011;6281;49.038;8.372;2022-09-28T11:19:57;8.60;;;2.33;;
12433;SDS011;6281;49.038;8.372;2022-09-28T11:22:27;4.67;;;1.90;;
12433;SDS011;6281;49.038;8.372;2022-09-28T11:25:13;3.40;;;1.90;;
12433;SDS011;6281;49.038;8.372;2022-09-28T11:27:55;4.57;;;2.13;;
12433;SDS011;6281;49.038;8.372;2022-09-28T11:30:26;4.70;;;1.73;;
12433;SDS011;6281;49.038;8.372;2022-09-28T11:32:59;5.90;;;2.03;;
12433;SDS011;6281;49.038;8.372;2022-09-28T11:35:30;7.73;;;2.57;;
12433;SDS011;6281;49.038;8.372;2022-09-28T11:38:10;3.67;;;2.00;;
12433;SDS011;6281;49.038;8.372;2022-09-28T11:40:50;4.53;;;1.87;;
12433;SDS011;6281;49.038;8.372;2022-09-28T11:43:30;6.43;;;2.10;;
12433;SDS011;6281;49.038;8.372;2022-09-28T11:46:14;4.73;;;2.00;;
12433;SDS011;6281;49.038;8.372;2022-09-28T11:48:51;5.00;;;1.90;;
12433;SDS011;6281;49.038;8.372;2022-09-28T11:51:24;4.07;;;1.90;;
12433;SDS011;6281;49.038;8.372;2022-09-28T11:53:55;4.57;;;1.87;;
12433;SDS011;6281;49.038;8.372;2022-09-28T11:56:28;6.03;;;2.00;;
12433;SDS011;6281;49.038;8.372;2022-09-28T11:59:02;5.57;;;1.80;;
12433;SDS011;6281;49.038;8.372;2022-09-28T12:01:35;5.70;;;1.90;;
12433;SDS011;6281;49.038;8.372;2022-09-28T12:04:07;4.23;;;1.83;;
12433;SDS011;6281;49.038;8.372;2022-09-28T12:06:40;4.63;;;1.50;;
12433;SDS011;6281;49.038;8.372;2022-09-28T12:09:13;3.43;;;1.73;;
12433;SDS011;6281;49.038;8.372;2022-09-28T12:11:44;5.17;;;1.97;;
12433;SDS011;6281;49.038;8.372;2022-09-28T12:14:18;3.67;;;1.80;;
12433;SDS011;6281;49.038;8.372;2022-09-28T12:16:50;5.47;;;1.70;;
12433;SDS011;6281;49.038;8.372;2022-09-28T12:19:21;2.97;;;1.53;;
12433;SDS011;6281;49.038;8.372;2022-09-28T12:21:56;4.87;;;1.53;;
12433;SDS011;6281;49.038;8.372;2022-09-28T12:24:30;3.37;;;1.20;;
12433;SDS011;6281;49.038;8.372;2022-09-28T12:27:02;4.37;;;1.70;;
12433;SDS011;6281;49.038;8.372;2022-09-28T12:29:34;3.73;;;1.47;;
12433;SDS011;6281;49.038;8.372;2022-09-28T12:32:11;2.50;;;1.30;;
12433;SDS011;6281;49.038;8.372;2022-09-28T12:34:47;3.60;;;1.50;;
12433;SDS011;6281;49.038;8.372;2022-09-28T12:37:26;2.17;;;1.27;;
12433;SDS011;6281;49.038;8.372;2022-09-28T12:43:07;3.80;;;1.47;;
12433;SDS011;6281;49.038;8.372;2022-09-28T12:46:02;7.93;;;1.50;;
12433;SDS011;6281;49.038;8.372;2022-09-28T12:48:47;1.90;;;1.53;;
12433;SDS011;6281;49.038;8.372;2022-09-28T12:51:27;4.37;;;1.43;;
12433;SDS011;6281;49.038;8.372;2022-09-28T12:54:07;2.23;;;1.03;;
12433;SDS011;6281;49.038;8.372;2022-09-28T12:56:44;1.30;;;1.10;;
12433;SDS011;6281;49.038;8.372;2022-09-28T12:59:19;2.63;;;1.47;;
12433;SDS011;6281;49.038;8.372;2022-09-28T13:01:59;3.83;;;1.10;;
12433;SDS011;6281;49.038;8.372;2022-09-28T13:04:53;3.20;;;1.50;;
12433;SDS011;6281;49.038;8.372;2022-09-28T13:07:29;5.63;;;1.70;;
12433;SDS011;6281;49.038;8.372;2022-09-28T13:10:06;2.20;;;1.10;;
12433;SDS011;6281;49.038;8.372;2022-09-28T13:12:44;4.17;;;0.97;;
12433;SDS011;6281;49.038;8.372;2022-09-28T13:15:40;4.63;;;1.13;;
12433;SDS011;6281;49.038;8.372;2022-09-28T13:18:13;1.47;;;1.00;;
12433;SDS011;6281;49.038;8.372;2022-09-28T13:20:52;4.13;;;0.90;;
12433;SDS011;6281;49.038;8.372;2022-09-28T13:23:29;2.87;;;1.07;;
12433;SDS011;6281;49.038;8.372;2022-09-28T13:26:06;1.73;;;1.13;;
12433;SDS011;6281;49.038;8.372;2022-09-28T13:28:38;4.80;;;1.00;;
12433;SDS011;6281;49.038;8.372;2022-09-28T13:31:06;3.23;;;1.37;;
12433;SDS011;6281;49.038;8.372;2022-09-28T13:33:34;2.80;;;1.00;;
12433;SDS011;6281;49.038;8.372;2022-09-28T13:36:34;3.03;;;1.00;;
12433;SDS011;6281;49.038;8.372;2022-09-28T13:42:01;1.40;;;1.00;;
12433;SDS011;6281;49.038;8.372;2022-09-28T13:44:34;4.27;;;1.20;;
12433;SDS011;6281;49.038;8.372;2022-09-28T13:47:21;1.30;;;0.90;;
12433;SDS011;6281;49.038;8.372;2022-09-28T13:50:09;4.13;;;1.00;;
12433;SDS011;6281;49.038;8.372;2022-09-28T13:52:45;3.07;;;1.20;;
12433;SDS011;6281;49.038;8.372;2022-09-28T13:55:22;4.73;;;1.30;;
12433;SDS011;6281;49.038;8.372;2022-09-28T13:57:57;1.30;;;0.90;;
12433;SDS011;6281;49.038;8.372;2022-09-28T14:00:29;2.07;;;1.00;;
12433;SDS011;6281;49.038;8.372;2022-09-28T14:03:02;1.70;;;0.90;;
12433;SDS011;6281;49.038;8.372;2022-09-28T14:08:34;2.20;;;0.70;;
12433;SDS011;6281;49.038;8.372;2022-09-28T14:20:24;2.93;;;1.20;;
12433;SDS011;6281;49.038;8.372;2022-09-28T14:25:44;1.73;;;1.00;;
12433;SDS011;6281;49.038;8.372;2022-09-28T14:28:28;3.73;;;1.03;;
12433;SDS011;6281;49.038;8.372;2022-09-28T14:31:06;2.93;;;1.20;;
12433;SDS011;6281;49.038;8.372;2022-09-28T14:33:39;4.30;;;1.20;;
12433;SDS011;6281;49.038;8.372;2022-09-28T14:36:07;3.13;;;1.17;;
12433;SDS011;6281;49.038;8.372;2022-09-28T14:39:18;3.40;;;1.20;;
12433;SDS011;6281;49.038;8.372;2022-09-28T14:42:10;3.13;;;0.97;;
12433;SDS011;6281;49.038;8.372;2022-09-28T14:48:19;3.20;;;1.27;;
12433;SDS011;6281;49.038;8.372;2022-09-28T14:50:47;1.53;;;0.90;;
12433;SDS011;6281;49.038;8.372;2022-09-28T14:53:17;2.67;;;1.00;;
12433;SDS011;6281;49.038;8.372;2022-09-28T14:55:50;1.43;;;1.00;;
12433;SDS011;6281;49.038;8.372;2022-09-28T14:58:22;1.97;;;1.00;;
12433;SDS011;6281;49.038;8.372;2022-09-28T15:00:54;1.43;;;0.77;;
12433;SDS011;6281;49.038;8.372;2022-09-28T15:03:26;1.40;;;0.83;;
12433;SDS011;6281;49.038;8.372;2022-09-28T15:05:55;2.20;;;0.93;;
12433;SDS011;6281;49.038;8.372;2022-09-28T15:08:22;3.80;;;1.30;;
12433;SDS011;6281;49.038;8.372;2022-09-28T15:11:01;2.20;;;1.20;;
12433;SDS011;6281;49.038;8.372;2022-09-28T15:13:30;2.20;;;1.20;;
12433;SDS011;6281;49.038;8.372;2022-09-28T15:16:02;1.50;;;1.00;;
12433;SDS011;6281;49.038;8.372;2022-09-28T15:21:40;2.67;;;1.00;;
12433;SDS011;6281;49.038;8.372;2022-09-28T15:24:28;5.87;;;1.50;;
12433;SDS011;6281;49.038;8.372;2022-09-28T15:26:57;1.97;;;1.30;;
12433;SDS011;6281;49.038;8.372;2022-09-28T15:29:28;4.57;;;1.13;;
12433;SDS011;6281;49.038;8.372;2022-09-28T15:31:57;3.37;;;1.43;;
12433;SDS011;6281;49.038;8.372;2022-09-28T15:34:25;4.57;;;1.50;;
12433;SDS011;6281;49.038;8.372;2022-09-28T15:37:15;4.77;;;1.70;;
12433;SDS011;6281;49.038;8.372;2022-09-28T15:40:00;5.83;;;2.00;;
12433;SDS011;6281;49.038;8.372;2022-09-28T15:42:39;4.00;;;2.37;;
12433;SDS011;6281;49.038;8.372;2022-09-28T15:48:19;10.37;;;4.07;;
12433;SDS011;6281;49.038;8.372;2022-09-28T15:50:56;6.57;;;3.17;;
12433;SDS011;6281;49.038;8.372;2022-09-28T15:53:35;10.93;;;3.27;;
12433;SDS011;6281;49.038;8.372;2022-09-28T15:56:06;3.77;;;2.40;;
12433;SDS011;6281;49.038;8.372;2022-09-28T15:58:35;4.57;;;1.40;;
12433;SDS011;6281;49.038;8.372;2022-09-28T16:09:54;3.27;;;1.37;;
12433;SDS011;6281;49.038;8.372;2022-09-28T16:12:24;5.70;;;1.37;;
12433;SDS011;6281;49.038;8.372;2022-09-28T16:14:56;2.70;;;1.47;;
12433;SDS011;6281;49.038;8.372;2022-09-28T16:17:29;3.63;;;1.40;;
12433;SDS011;6281;49.038;8.372;2022-09-28T16:19:59;3.20;;;1.43;;
12433;SDS011;6281;49.038;8.372;2022-09-28T16:22:28;4.63;;;1.90;;
12433;SDS011;6281;49.038;8.372;2022-09-28T16:24:58;3.17;;;1.50;;
12433;SDS011;6281;49.038;8.372;2022-09-28T16:27:27;4.53;;;1.53;;
12433;SDS011;6281;49.038;8.372;2022-09-28T16:30:10;4.50;;;1.60;;
12433;SDS011;6281;49.038;8.372;2022-09-28T16:32:46;3.10;;;1.90;;